sensor_id;sensor_type;location;lat;lon;timestamp;pressure;altitude;pressure_sealevel;temperature;humidity
22647;BME280;11490;42.726;23.268;2023-02-04T00:00:21;95036.88;;;2.64;96.32
22647;BME280;11490;42.726;23.268;2023-02-04T00:02:47;95046.59;;;2.64;96.76
22647;BME280;11490;42.726;23.268;2023-02-04T00:05:13;95029.69;;;2.45;97.16
22647;BME280;11490;42.726;23.268;2023-02-04T00:07:40;95011.41;;;2.37;97.62
22647;BME280;11490;42.726;23.268;2023-02-04T00:10:06;95017.34;;;2.46;97.70
22647;BME280;11490;42.726;23.268;2023-02-04T00:12:31;95002.72;;;2.43;98.11
22647;BME280;11490;42.726;23.268;2023-02-04T00:14:57;95001.88;;;2.36;98.36
22647;BME280;11490;42.726;23.268;2023-02-04T00:17:23;95008.38;;;2.40;99.28
22647;BME280;11490;42.726;23.268;2023-02-04T00:19:48;95018.91;;;2.40;99.63
22647;BME280;11490;42.726;23.268;2023-02-04T00:22:14;95017.66;;;2.36;100.00
22647;BME280;11490;42.726;23.268;2023-02-04T00:24:39;95005.91;;;2.32;100.00
22647;BME280;11490;42.726;23.268;2023-02-04T00:27:07;95004.22;;;2.24;100.00
22647;BME280;11490;42.726;23.268;2023-02-04T00:29:32;95006.06;;;2.24;100.00
22647;BME280;11490;42.726;23.268;2023-02-04T00:31:58;95009.91;;;2.28;100.00
22647;BME280;11490;42.726;23.268;2023-02-04T00:34:23;95003.88;;;2.34;99.91
22647;BME280;11490;42.726;23.268;2023-02-04T00:36:49;94998.63;;;2.34;99.84
22647;BME280;11490;42.726;23.268;2023-02-04T00:39:14;94995.72;;;2.22;99.75
22647;BME280;11490;42.726;23.268;2023-02-04T00:41:39;94992.53;;;2.06;100.00
22647;BME280;11490;42.726;23.268;2023-02-04T00:44:05;94996.09;;;2.19;100.00
22647;BME280;11490;42.726;23.268;2023-02-04T00:46:30;94985.75;;;2.18;99.79
22647;BME280;11490;42.726;23.268;2023-02-04T00:48:56;95002.19;;;2.26;99.82
22647;BME280;11490;42.726;23.268;2023-02-04T00:51:21;94988.78;;;2.15;99.83
22647;BME280;11490;42.726;23.268;2023-02-04T00:53:46;94962.13;;;1.97;99.88
22647;BME280;11490;42.726;23.268;2023-02-04T00:56:12;94977.47;;;2.21;99.48
22647;BME280;11490;42.726;23.268;2023-02-04T00:58:37;94980.78;;;2.29;98.34
22647;BME280;11490;42.726;23.268;2023-02-04T01:01:03;94982.38;;;2.24;98.76
22647;BME280;11490;42.726;23.268;2023-02-04T01:03:29;94952.81;;;2.22;98.26
22647;BME280;11490;42.726;23.268;2023-02-04T01:05:54;94949.16;;;2.23;97.74
22647;BME280;11490;42.726;23.268;2023-02-04T01:08:19;94950.03;;;2.30;96.99
22647;BME280;11490;42.726;23.268;2023-02-04T01:10:45;94962.25;;;2.44;96.38
22647;BME280;11490;42.726;23.268;2023-02-04T01:13:10;94957.84;;;2.51;96.29
22647;BME280;11490;42.726;23.268;2023-02-04T01:15:36;94954.19;;;2.52;96.39
22647;BME280;11490;42.726;23.268;2023-02-04T01:18:01;94930.81;;;2.36;95.60
22647;BME280;11490;42.726;23.268;2023-02-04T01:20:27;94941.72;;;2.67;95.76
22647;BME280;11490;42.726;23.268;2023-02-04T01:22:52;94930.34;;;2.60;94.94
22647;BME280;11490;42.726;23.268;2023-02-04T01:25:18;94921.81;;;2.58;95.13
22647;BME280;11490;42.726;23.268;2023-02-04T01:27:44;94923.47;;;2.59;95.52
22647;BME280;11490;42.726;23.268;2023-02-04T01:30:10;94929.03;;;2.43;95.14
22647;BME280;11490;42.726;23.268;2023-02-04T01:32:36;94908.16;;;2.35;95.36
22647;BME280;11490;42.726;23.268;2023-02-04T01:35:03;94925.28;;;2.59;92.63
22647;BME280;11490;42.726;23.268;2023-02-04T01:37:28;94918.50;;;2.78;91.19
22647;BME280;11490;42.726;23.268;2023-02-04T01:39:54;94913.25;;;2.84;89.06
22647;BME280;11490;42.726;23.268;2023-02-04T01:42:19;94893.41;;;2.95;88.18
22647;BME280;11490;42.726;23.268;2023-02-04T01:44:45;94892.41;;;2.96;88.10
22647;BME280;11490;42.726;23.268;2023-02-04T01:47:10;94906.38;;;3.03;87.25
22647;BME280;11490;42.726;23.268;2023-02-04T01:49:36;94895.09;;;3.09;87.17
22647;BME280;11490;42.726;23.268;2023-02-04T01:52:02;94894.09;;;3.23;86.71
22647;BME280;11490;42.726;23.268;2023-02-04T01:54:28;94895.94;;;3.29;86.52
22647;BME280;11490;42.726;23.268;2023-02-04T01:56:54;94883.56;;;3.23;85.97
22647;BME280;11490;42.726;23.268;2023-02-04T01:59:20;94864.28;;;3.16;85.51
22647;BME280;11490;42.726;23.268;2023-02-04T02:01:51;94889.22;;;3.33;85.68
22647;BME280;11490;42.726;23.268;2023-02-04T02:04:20;94873.22;;;3.28;85.88
22647;BME280;11490;42.726;23.268;2023-02-04T02:06:53;94890.47;;;3.31;87.18
22647;BME280;11490;42.726;23.268;2023-02-04T02:09:19;94890.41;;;3.11;89.25
22647;BME280;11490;42.726;23.268;2023-02-04T02:11:45;94880.09;;;3.09;89.88
22647;BME280;11490;42.726;23.268;2023-02-04T02:14:12;94881.50;;;3.25;89.49
22647;BME280;11490;42.726;23.268;2023-02-04T02:16:37;94872.41;;;3.21;89.75
22647;BME280;11490;42.726;23.268;2023-02-04T02:19:04;94854.53;;;3.10;89.91
22647;BME280;11490;42.726;23.268;2023-02-04T02:22:12;94868.94;;;3.27;90.70
22647;BME280;11490;42.726;23.268;2023-02-04T02:24:39;94847.88;;;3.14;90.66
22647;BME280;11490;42.726;23.268;2023-02-04T02:27:07;94841.59;;;3.08;90.39
22647;BME280;11490;42.726;23.268;2023-02-04T02:29:34;94819.25;;;2.98;91.05
22647;BME280;11490;42.726;23.268;2023-02-04T02:32:00;94819.25;;;2.98;91.79
22647;BME280;11490;42.726;23.268;2023-02-04T02:34:26;94822.09;;;3.03;91.79
22647;BME280;11490;42.726;23.268;2023-02-04T02:36:52;94810.88;;;2.61;93.33
22647;BME280;11490;42.726;23.268;2023-02-04T02:39:18;94799.91;;;2.51;93.89
22647;BME280;11490;42.726;23.268;2023-02-04T02:41:44;94794.00;;;2.36;94.91
22647;BME280;11490;42.726;23.268;2023-02-04T02:44:11;94801.97;;;2.62;94.53
22647;BME280;11490;42.726;23.268;2023-02-04T02:46:38;94786.19;;;2.69;94.35
22647;BME280;11490;42.726;23.268;2023-02-04T02:49:03;94799.56;;;2.74;93.66
22647;BME280;11490;42.726;23.268;2023-02-04T02:51:29;94781.97;;;2.81;93.22
22647;BME280;11490;42.726;23.268;2023-02-04T02:53:55;94775.69;;;2.76;93.35
22647;BME280;11490;42.726;23.268;2023-02-04T02:56:21;94774.41;;;2.52;94.96
22647;BME280;11490;42.726;23.268;2023-02-04T02:58:47;94774.41;;;2.58;93.74
22647;BME280;11490;42.726;23.268;2023-02-04T03:01:12;94767.56;;;2.70;91.32
22647;BME280;11490;42.726;23.268;2023-02-04T03:03:44;94779.75;;;2.98;89.89
22647;BME280;11490;42.726;23.268;2023-02-04T03:06:17;94768.81;;;3.14;88.68
22647;BME280;11490;42.726;23.268;2023-02-04T03:08:44;94769.63;;;3.21;88.18
22647;BME280;11490;42.726;23.268;2023-02-04T03:11:10;94776.53;;;3.29;87.10
22647;BME280;11490;42.726;23.268;2023-02-04T03:13:36;94792.75;;;3.45;86.22
22647;BME280;11490;42.726;23.268;2023-02-04T03:16:02;94771.66;;;3.45;86.50
22647;BME280;11490;42.726;23.268;2023-02-04T03:18:29;94782.13;;;3.72;85.58
22647;BME280;11490;42.726;23.268;2023-02-04T03:20:55;94746.88;;;3.60;84.71
22647;BME280;11490;42.726;23.268;2023-02-04T03:23:23;94762.44;;;3.81;84.05
22647;BME280;11490;42.726;23.268;2023-02-04T03:25:48;94770.00;;;3.71;86.49
22647;BME280;11490;42.726;23.268;2023-02-04T03:28:14;94773.66;;;3.57;88.01
22647;BME280;11490;42.726;23.268;2023-02-04T03:30:39;94783.41;;;3.63;88.28
22647;BME280;11490;42.726;23.268;2023-02-04T03:33:05;94783.78;;;3.60;88.35
22647;BME280;11490;42.726;23.268;2023-02-04T03:35:30;94777.94;;;3.44;89.41
22647;BME280;11490;42.726;23.268;2023-02-04T03:37:55;94771.44;;;3.27;91.02
22647;BME280;11490;42.726;23.268;2023-02-04T03:40:21;94753.41;;;3.18;91.44
22647;BME280;11490;42.726;23.268;2023-02-04T03:42:46;94753.41;;;2.85;92.66
22647;BME280;11490;42.726;23.268;2023-02-04T03:45:12;94761.94;;;3.00;93.24
22647;BME280;11490;42.726;23.268;2023-02-04T03:47:37;94752.22;;;2.94;93.04
22647;BME280;11490;42.726;23.268;2023-02-04T03:50:04;94748.97;;;2.92;94.18
22647;BME280;11490;42.726;23.268;2023-02-04T03:52:29;94738.84;;;3.02;93.62
22647;BME280;11490;42.726;23.268;2023-02-04T03:54:55;94733.75;;;3.20;93.25
22647;BME280;11490;42.726;23.268;2023-02-04T03:57:20;94748.16;;;3.31;93.28
22647;BME280;11490;42.726;23.268;2023-02-04T03:59:45;94749.56;;;3.40;93.13
22647;BME280;11490;42.726;23.268;2023-02-04T04:02:11;94722.41;;;3.20;93.35
22647;BME280;11490;42.726;23.268;2023-02-04T04:04:36;94731.91;;;3.27;93.59
22647;BME280;11490;42.726;23.268;2023-02-04T04:07:02;94717.34;;;3.25;93.25
22647;BME280;11490;42.726;23.268;2023-02-04T04:09:27;94714.91;;;3.23;93.66
22647;BME280;11490;42.726;23.268;2023-02-04T04:11:53;94714.91;;;3.23;93.44
22647;BME280;11490;42.726;23.268;2023-02-04T04:14:19;94712.84;;;3.25;93.44
22647;BME280;11490;42.726;23.268;2023-02-04T04:16:44;94705.19;;;3.17;93.87
22647;BME280;11490;42.726;23.268;2023-02-04T04:19:09;94708.81;;;3.03;93.89
22647;BME280;11490;42.726;23.268;2023-02-04T04:21:35;94712.91;;;2.99;95.31
22647;BME280;11490;42.726;23.268;2023-02-04T04:24:00;94713.31;;;3.09;95.24
22647;BME280;11490;42.726;23.268;2023-02-04T04:26:25;94705.78;;;3.06;95.09
22647;BME280;11490;42.726;23.268;2023-02-04T04:28:51;94715.72;;;2.97;95.17
22647;BME280;11490;42.726;23.268;2023-02-04T04:31:16;94719.97;;;3.05;96.48
22647;BME280;11490;42.726;23.268;2023-02-04T04:33:41;94722.63;;;3.05;96.01
22647;BME280;11490;42.726;23.268;2023-02-04T04:36:07;94727.50;;;3.08;96.08
22647;BME280;11490;42.726;23.268;2023-02-04T04:38:32;94723.81;;;3.02;96.43
22647;BME280;11490;42.726;23.268;2023-02-04T04:40:58;94725.44;;;2.97;97.22
22647;BME280;11490;42.726;23.268;2023-02-04T04:43:23;94722.00;;;2.90;97.20
22647;BME280;11490;42.726;23.268;2023-02-04T04:45:49;94726.66;;;2.75;98.74
22647;BME280;11490;42.726;23.268;2023-02-04T04:48:14;94729.72;;;2.91;98.14
22647;BME280;11490;42.726;23.268;2023-02-04T04:50:39;94723.81;;;2.83;97.71
22647;BME280;11490;42.726;23.268;2023-02-04T04:53:05;94739.66;;;3.16;95.84
22647;BME280;11490;42.726;23.268;2023-02-04T04:55:38;94697.69;;;3.07;95.45
22647;BME280;11490;42.726;23.268;2023-02-04T04:58:04;94735.34;;;3.34;96.25
22647;BME280;11490;42.726;23.268;2023-02-04T05:00:30;94735.56;;;3.46;96.14
22647;BME280;11490;42.726;23.268;2023-02-04T05:02:55;94739.59;;;3.42;97.67
22647;BME280;11490;42.726;23.268;2023-02-04T05:05:20;94740.84;;;3.39;98.07
22647;BME280;11490;42.726;23.268;2023-02-04T05:07:46;94733.09;;;3.58;98.50
22647;BME280;11490;42.726;23.268;2023-02-04T05:10:11;94701.94;;;3.15;99.87
22647;BME280;11490;42.726;23.268;2023-02-04T05:12:39;94715.50;;;3.12;100.00
22647;BME280;11490;42.726;23.268;2023-02-04T05:15:05;94736.38;;;3.20;100.00
22647;BME280;11490;42.726;23.268;2023-02-04T05:17:30;94770.81;;;3.52;99.84
22647;BME280;11490;42.726;23.268;2023-02-04T05:19:56;94761.13;;;3.32;99.92
22647;BME280;11490;42.726;23.268;2023-02-04T05:22:21;94776.09;;;3.19;99.85
22647;BME280;11490;42.726;23.268;2023-02-04T05:24:47;94760.09;;;3.20;100.00
22647;BME280;11490;42.726;23.268;2023-02-04T05:27:13;94784.63;;;3.27;100.00
22647;BME280;11490;42.726;23.268;2023-02-04T05:29:38;94786.88;;;3.17;99.88
22647;BME280;11490;42.726;23.268;2023-02-04T05:32:04;94800.25;;;3.22;99.43
22647;BME280;11490;42.726;23.268;2023-02-04T05:34:29;94804.50;;;3.23;100.00
22647;BME280;11490;42.726;23.268;2023-02-04T05:36:54;94808.34;;;3.21;100.00
22647;BME280;11490;42.726;23.268;2023-02-04T05:39:20;94791.91;;;3.12;100.00
22647;BME280;11490;42.726;23.268;2023-02-04T05:41:45;94783.00;;;3.00;100.00
22647;BME280;11490;42.726;23.268;2023-02-04T05:44:11;94800.63;;;3.06;99.86
22647;BME280;11490;42.726;23.268;2023-02-04T05:46:36;94795.16;;;3.01;99.14
22647;BME280;11490;42.726;23.268;2023-02-04T05:49:03;94781.38;;;2.99;98.51
22647;BME280;11490;42.726;23.268;2023-02-04T05:51:29;94774.47;;;3.11;97.46
22647;BME280;11490;42.726;23.268;2023-02-04T05:53:54;94767.41;;;2.98;97.34
22647;BME280;11490;42.726;23.268;2023-02-04T05:56:19;94763.94;;;2.98;97.11
22647;BME280;11490;42.726;23.268;2023-02-04T05:58:48;94756.44;;;2.95;97.18
22647;BME280;11490;42.726;23.268;2023-02-04T06:01:13;94766.78;;;2.90;97.32
22647;BME280;11490;42.726;23.268;2023-02-04T06:03:38;94766.38;;;2.93;96.81
22647;BME280;11490;42.726;23.268;2023-02-04T06:06:04;94770.03;;;2.92;97.40
22647;BME280;11490;42.726;23.268;2023-02-04T06:08:29;94745.72;;;2.77;97.02
22647;BME280;11490;42.726;23.268;2023-02-04T06:10:55;94778.13;;;2.97;96.77
22647;BME280;11490;42.726;23.268;2023-02-04T06:13:20;94782.59;;;3.03;96.32
22647;BME280;11490;42.726;23.268;2023-02-04T06:15:45;94789.28;;;3.12;95.97
22647;BME280;11490;42.726;23.268;2023-02-04T06:18:11;94763.94;;;2.98;95.97
22647;BME280;11490;42.726;23.268;2023-02-04T06:20:36;94788.28;;;3.26;95.74
22647;BME280;11490;42.726;23.268;2023-02-04T06:23:02;94797.22;;;3.38;95.55
22647;BME280;11490;42.726;23.268;2023-02-04T06:25:27;94760.31;;;3.38;94.83
22647;BME280;11490;42.726;23.268;2023-02-04T06:27:52;94786.84;;;3.43;94.71
22647;BME280;11490;42.726;23.268;2023-02-04T06:30:18;94788.69;;;3.36;95.34
22647;BME280;11490;42.726;23.268;2023-02-04T06:32:43;94795.59;;;3.31;94.81
22647;BME280;11490;42.726;23.268;2023-02-04T06:35:09;94771.06;;;3.17;94.06
22647;BME280;11490;42.726;23.268;2023-02-04T06:37:37;94806.09;;;3.57;93.55
22647;BME280;11490;42.726;23.268;2023-02-04T06:40:02;94814.63;;;3.53;93.41
22647;BME280;11490;42.726;23.268;2023-02-04T06:42:29;94816.03;;;3.48;93.17
22647;BME280;11490;42.726;23.268;2023-02-04T06:44:55;94785.44;;;3.47;92.96
22647;BME280;11490;42.726;23.268;2023-02-04T06:47:21;94806.13;;;3.64;92.40
22647;BME280;11490;42.726;23.268;2023-02-04T06:49:46;94806.50;;;3.74;92.02
22647;BME280;11490;42.726;23.268;2023-02-04T06:52:12;94819.00;;;4.11;90.50
22647;BME280;11490;42.726;23.268;2023-02-04T06:54:37;94805.09;;;4.36;88.96
22647;BME280;11490;42.726;23.268;2023-02-04T06:57:03;94793.38;;;4.18;88.89
22647;BME280;11490;42.726;23.268;2023-02-04T06:59:36;94807.50;;;4.44;88.68
22647;BME280;11490;42.726;23.268;2023-02-04T07:02:03;94809.78;;;4.34;87.88
22647;BME280;11490;42.726;23.268;2023-02-04T07:04:29;94793.50;;;4.43;87.82
22647;BME280;11490;42.726;23.268;2023-02-04T07:06:55;94795.94;;;4.45;88.53
22647;BME280;11490;42.726;23.268;2023-02-04T07:09:20;94798.22;;;4.41;87.33
22647;BME280;11490;42.726;23.268;2023-02-04T07:11:46;94748.63;;;4.43;86.57
22647;BME280;11490;42.726;23.268;2023-02-04T07:14:11;94786.91;;;4.97;85.93
22647;BME280;11490;42.726;23.268;2023-02-04T07:16:37;94784.00;;;5.05;85.29
22647;BME280;11490;42.726;23.268;2023-02-04T07:19:02;94767.94;;;5.07;83.40
22647;BME280;11490;42.726;23.268;2023-02-04T07:21:28;94764.63;;;5.18;83.89
22647;BME280;11490;42.726;23.268;2023-02-04T07:23:53;94789.22;;;5.18;83.65
22647;BME280;11490;42.726;23.268;2023-02-04T07:26:19;94766.31;;;5.06;83.84
22647;BME280;11490;42.726;23.268;2023-02-04T07:28:44;94778.59;;;5.25;84.26
22647;BME280;11490;42.726;23.268;2023-02-04T07:31:09;94771.09;;;5.22;84.06
22647;BME280;11490;42.726;23.268;2023-02-04T07:33:35;94769.69;;;4.94;84.42
22647;BME280;11490;42.726;23.268;2023-02-04T07:36:01;94776.28;;;5.03;83.88
22647;BME280;11490;42.726;23.268;2023-02-04T07:38:26;94758.41;;;5.06;84.43
22647;BME280;11490;42.726;23.268;2023-02-04T07:40:52;94763.59;;;5.19;83.82
22647;BME280;11490;42.726;23.268;2023-02-04T07:43:17;94749.56;;;5.43;83.76
22647;BME280;11490;42.726;23.268;2023-02-04T07:45:42;94757.22;;;5.51;82.63
22647;BME280;11490;42.726;23.268;2023-02-04T07:48:08;94732.66;;;5.44;81.08
22647;BME280;11490;42.726;23.268;2023-02-04T07:50:34;94768.72;;;5.63;82.96
22647;BME280;11490;42.726;23.268;2023-02-04T07:53:00;94758.84;;;5.52;81.16
22647;BME280;11490;42.726;23.268;2023-02-04T07:55:25;94752.44;;;5.41;83.40
22647;BME280;11490;42.726;23.268;2023-02-04T07:57:51;94744.38;;;5.30;83.17
22647;BME280;11490;42.726;23.268;2023-02-04T08:00:16;94732.63;;;5.26;83.28
22647;BME280;11490;42.726;23.268;2023-02-04T08:02:42;94738.00;;;5.13;83.05
22647;BME280;11490;42.726;23.268;2023-02-04T08:05:08;94750.69;;;5.04;83.16
22647;BME280;11490;42.726;23.268;2023-02-04T08:07:34;94770.47;;;5.26;84.76
22647;BME280;11490;42.726;23.268;2023-02-04T08:09:59;94758.91;;;5.21;83.52
22647;BME280;11490;42.726;23.268;2023-02-04T08:12:24;94773.31;;;5.25;83.82
22647;BME280;11490;42.726;23.268;2023-02-04T08:14:50;94768.38;;;5.28;83.54
22647;BME280;11490;42.726;23.268;2023-02-04T08:17:15;94760.38;;;5.17;84.04
22647;BME280;11490;42.726;23.268;2023-02-04T08:19:40;94748.00;;;5.11;83.83
22647;BME280;11490;42.726;23.268;2023-02-04T08:22:06;94769.59;;;5.32;84.56
22647;BME280;11490;42.726;23.268;2023-02-04T08:24:31;94764.19;;;5.21;84.67
22647;BME280;11490;42.726;23.268;2023-02-04T08:26:57;94772.63;;;5.04;84.63
22647;BME280;11490;42.726;23.268;2023-02-04T08:29:23;94760.97;;;4.87;86.06
22647;BME280;11490;42.726;23.268;2023-02-04T08:31:50;94763.31;;;5.02;86.51
22647;BME280;11490;42.726;23.268;2023-02-04T08:34:15;94740.31;;;4.78;87.32
22647;BME280;11490;42.726;23.268;2023-02-04T08:36:41;94758.78;;;5.09;87.08
22647;BME280;11490;42.726;23.268;2023-02-04T08:39:08;94753.88;;;5.13;87.89
22647;BME280;11490;42.726;23.268;2023-02-04T08:41:33;94762.94;;;5.23;87.09
22647;BME280;11490;42.726;23.268;2023-02-04T08:43:59;94754.16;;;5.29;87.77
22647;BME280;11490;42.726;23.268;2023-02-04T08:46:24;94763.91;;;5.29;86.35
22647;BME280;11490;42.726;23.268;2023-02-04T08:48:50;94742.66;;;4.92;86.52
22647;BME280;11490;42.726;23.268;2023-02-04T08:51:15;94744.75;;;5.09;86.11
22647;BME280;11490;42.726;23.268;2023-02-04T08:53:41;94759.66;;;5.03;87.34
22647;BME280;11490;42.726;23.268;2023-02-04T08:56:06;94741.03;;;4.91;88.46
22647;BME280;11490;42.726;23.268;2023-02-04T08:58:34;94749.09;;;4.96;88.68
22647;BME280;11490;42.726;23.268;2023-02-04T09:00:59;94734.63;;;4.74;88.90
22647;BME280;11490;42.726;23.268;2023-02-04T09:03:25;94730.56;;;4.78;89.27
22647;BME280;11490;42.726;23.268;2023-02-04T09:05:50;94742.75;;;4.79;88.99
22647;BME280;11490;42.726;23.268;2023-02-04T09:08:15;94750.91;;;4.71;89.86
22647;BME280;11490;42.726;23.268;2023-02-04T09:10:41;94729.03;;;4.57;90.02
22647;BME280;11490;42.726;23.268;2023-02-04T09:13:06;94726.59;;;4.62;90.41
22647;BME280;11490;42.726;23.268;2023-02-04T09:15:35;94738.03;;;4.81;89.57
22647;BME280;11490;42.726;23.268;2023-02-04T09:18:04;94736.09;;;5.01;87.82
22647;BME280;11490;42.726;23.268;2023-02-04T09:20:38;94732.84;;;4.99;86.81
22647;BME280;11490;42.726;23.268;2023-02-04T09:23:04;94727.56;;;4.99;86.54
22647;BME280;11490;42.726;23.268;2023-02-04T09:25:33;94751.94;;;5.01;85.89
22647;BME280;11490;42.726;23.268;2023-02-04T09:27:58;94726.03;;;4.85;86.61
22647;BME280;11490;42.726;23.268;2023-02-04T09:30:24;94724.31;;;4.97;85.30
22647;BME280;11490;42.726;23.268;2023-02-04T09:32:49;94743.31;;;5.13;87.35
22647;BME280;11490;42.726;23.268;2023-02-04T09:35:15;94744.16;;;5.07;88.52
22647;BME280;11490;42.726;23.268;2023-02-04T09:37:41;94744.34;;;4.80;90.33
22647;BME280;11490;42.726;23.268;2023-02-04T09:40:06;94725.63;;;4.82;91.32
22647;BME280;11490;42.726;23.268;2023-02-04T09:42:32;94721.25;;;4.69;93.09
22647;BME280;11490;42.726;23.268;2023-02-04T09:44:57;94712.78;;;4.60;93.88
22647;BME280;11490;42.726;23.268;2023-02-04T09:47:25;94733.78;;;4.80;93.67
22647;BME280;11490;42.726;23.268;2023-02-04T09:49:51;94741.16;;;5.03;94.52
22647;BME280;11490;42.726;23.268;2023-02-04T09:52:17;94733.09;;;4.91;94.23
22647;BME280;11490;42.726;23.268;2023-02-04T09:54:43;94718.72;;;4.87;94.65
22647;BME280;11490;42.726;23.268;2023-02-04T09:57:19;94716.69;;;4.83;94.37
22647;BME280;11490;42.726;23.268;2023-02-04T09:59:45;94724.16;;;4.92;93.67
22647;BME280;11490;42.726;23.268;2023-02-04T10:02:33;94721.69;;;4.66;95.21
22647;BME280;11490;42.726;23.268;2023-02-04T10:04:59;94717.72;;;4.82;96.40
22647;BME280;11490;42.726;23.268;2023-02-04T10:07:24;94698.50;;;4.68;96.29
22647;BME280;11490;42.726;23.268;2023-02-04T10:09:52;94688.69;;;4.75;96.60
22647;BME280;11490;42.726;23.268;2023-02-04T10:12:18;94664.44;;;4.60;96.08
22647;BME280;11490;42.726;23.268;2023-02-04T10:14:44;94671.81;;;4.51;96.48
22647;BME280;11490;42.726;23.268;2023-02-04T10:17:11;94666.47;;;4.58;96.98
22647;BME280;11490;42.726;23.268;2023-02-04T10:19:38;94672.97;;;4.62;96.49
22647;BME280;11490;42.726;23.268;2023-02-04T10:22:14;94675.22;;;4.83;97.60
22647;BME280;11490;42.726;23.268;2023-02-04T10:24:40;94688.72;;;5.00;97.30
22647;BME280;11490;42.726;23.268;2023-02-04T10:27:08;94654.97;;;4.77;96.75
22647;BME280;11490;42.726;23.268;2023-02-04T10:29:34;94670.00;;;4.77;95.66
22647;BME280;11490;42.726;23.268;2023-02-04T10:31:59;94664.94;;;4.75;97.04
22647;BME280;11490;42.726;23.268;2023-02-04T10:34:37;94673.47;;;4.46;98.29
22647;BME280;11490;42.726;23.268;2023-02-04T10:37:20;94674.66;;;4.50;100.00
22647;BME280;11490;42.726;23.268;2023-02-04T10:39:46;94672.66;;;4.45;100.00
22647;BME280;11490;42.726;23.268;2023-02-04T10:42:24;94700.53;;;4.66;100.00
22647;BME280;11490;42.726;23.268;2023-02-04T10:44:51;94686.53;;;4.34;100.00
22647;BME280;11490;42.726;23.268;2023-02-04T10:47:21;94685.06;;;4.45;100.00
22647;BME280;11490;42.726;23.268;2023-02-04T10:50:00;94686.78;;;4.64;100.00
22647;BME280;11490;42.726;23.268;2023-02-04T10:52:53;94684.69;;;4.66;100.00
22647;BME280;11490;42.726;23.268;2023-02-04T10:55:43;94678.66;;;4.59;100.00
22647;BME280;11490;42.726;23.268;2023-02-04T10:58:26;94676.16;;;4.71;100.00
22647;BME280;11490;42.726;23.268;2023-02-04T11:00:52;94669.41;;;4.75;100.00
22647;BME280;11490;42.726;23.268;2023-02-04T11:03:21;94675.66;;;4.80;100.00
22647;BME280;11490;42.726;23.268;2023-02-04T11:05:47;94663.50;;;4.79;100.00
22647;BME280;11490;42.726;23.268;2023-02-04T11:08:24;94662.19;;;4.88;100.00
22647;BME280;11490;42.726;23.268;2023-02-04T11:10:55;94659.66;;;5.00;100.00
22647;BME280;11490;42.726;23.268;2023-02-04T11:13:27;94655.59;;;4.97;100.00
22647;BME280;11490;42.726;23.268;2023-02-04T11:16:23;94658.69;;;4.94;100.00
22647;BME280;11490;42.726;23.268;2023-02-04T11:18:57;94661.97;;;4.90;100.00
22647;BME280;11490;42.726;23.268;2023-02-04T11:26:38;94662.84;;;5.09;100.00
22647;BME280;11490;42.726;23.268;2023-02-04T11:39:35;94653.13;;;5.02;100.00
22647;BME280;11490;42.726;23.268;2023-02-04T11:42:02;94663.72;;;5.02;100.00
22647;BME280;11490;42.726;23.268;2023-02-04T11:44:28;94649.56;;;4.90;100.00
22647;BME280;11490;42.726;23.268;2023-02-04T11:46:55;94648.97;;;4.88;100.00
22647;BME280;11490;42.726;23.268;2023-02-04T11:49:22;94640.94;;;5.01;100.00
22647;BME280;11490;42.726;23.268;2023-02-04T11:51:48;94653.72;;;5.04;100.00
22647;BME280;11490;42.726;23.268;2023-02-04T11:54:14;94659.16;;;5.10;100.00
22647;BME280;11490;42.726;23.268;2023-02-04T11:56:43;94659.53;;;4.88;100.00
22647;BME280;11490;42.726;23.268;2023-02-04T11:59:10;94653.88;;;5.10;100.00
22647;BME280;11490;42.726;23.268;2023-02-04T12:01:38;94656.13;;;4.81;100.00
22647;BME280;11490;42.726;23.268;2023-02-04T12:04:06;94642.44;;;4.66;100.00
22647;BME280;11490;42.726;23.268;2023-02-04T12:06:35;94650.84;;;4.81;100.00
22647;BME280;11490;42.726;23.268;2023-02-04T12:09:06;94645.91;;;4.91;100.00
22647;BME280;11490;42.726;23.268;2023-02-04T12:11:32;94644.56;;;4.82;100.00
22647;BME280;11490;42.726;23.268;2023-02-04T12:14:06;94638.38;;;4.70;100.00
22647;BME280;11490;42.726;23.268;2023-02-04T12:16:46;94637.59;;;4.88;100.00
22647;BME280;11490;42.726;23.268;2023-02-04T12:19:13;94628.75;;;5.00;100.00
22647;BME280;11490;42.726;23.268;2023-02-04T12:21:39;94629.03;;;4.92;100.00
22647;BME280;11490;42.726;23.268;2023-02-04T12:24:05;94645.16;;;5.09;100.00
22647;BME280;11490;42.726;23.268;2023-02-04T12:26:31;94630.06;;;4.91;100.00
22647;BME280;11490;42.726;23.268;2023-02-04T12:28:57;94604.81;;;4.95;100.00
22647;BME280;11490;42.726;23.268;2023-02-04T12:31:27;94629.84;;;5.54;100.00
22647;BME280;11490;42.726;23.268;2023-02-04T12:33:52;94608.94;;;5.28;100.00
22647;BME280;11490;42.726;23.268;2023-02-04T12:36:18;94588.84;;;5.09;100.00
22647;BME280;11490;42.726;23.268;2023-02-04T12:38:44;94612.44;;;5.03;100.00
22647;BME280;11490;42.726;23.268;2023-02-04T12:41:09;94610.97;;;4.89;100.00
22647;BME280;11490;42.726;23.268;2023-02-04T12:43:35;94615.75;;;4.99;100.00
22647;BME280;11490;42.726;23.268;2023-02-04T12:46:00;94619.00;;;5.01;100.00
22647;BME280;11490;42.726;23.268;2023-02-04T12:48:25;94611.69;;;4.96;100.00
22647;BME280;11490;42.726;23.268;2023-02-04T12:50:51;94617.69;;;5.10;99.73
22647;BME280;11490;42.726;23.268;2023-02-04T12:53:16;94616.28;;;5.08;100.00
22647;BME280;11490;42.726;23.268;2023-02-04T12:55:42;94622.97;;;5.10;100.00
22647;BME280;11490;42.726;23.268;2023-02-04T12:58:07;94615.69;;;5.06;100.00
22647;BME280;11490;42.726;23.268;2023-02-04T13:00:32;94621.53;;;4.89;100.00
22647;BME280;11490;42.726;23.268;2023-02-04T13:02:58;94620.69;;;4.95;99.68
22647;BME280;11490;42.726;23.268;2023-02-04T13:05:24;94625.84;;;5.09;100.00
22647;BME280;11490;42.726;23.268;2023-02-04T13:07:50;94623.00;;;5.03;99.03
22647;BME280;11490;42.726;23.268;2023-02-04T13:10:16;94643.72;;;5.07;97.96